createdAt,value
2022-07-26T00:01:15.828Z,100.00
2022-07-26T00:04:18.592Z,100.00
2022-07-26T00:07:22.587Z,100.00
2022-07-26T00:10:25.165Z,100.00
2022-07-26T00:13:27.854Z,100.00
2022-07-26T00:16:33.353Z,100.00
2022-07-26T00:19:35.961Z,100.00
2022-07-26T00:22:41.581Z,100.00
2022-07-26T00:25:44.173Z,100.00
2022-07-26T00:28:46.820Z,100.00
2022-07-26T00:31:49.514Z,100.00
2022-07-26T00:34:52.561Z,100.00
2022-07-26T00:37:56.509Z,100.00
2022-07-26T00:40:59.124Z,100.00
2022-07-26T00:44:01.747Z,100.00
2022-07-26T00:47:04.590Z,100.00
2022-07-26T00:50:10.487Z,100.00
2022-07-26T00:53:14.568Z,100.00
2022-07-26T00:56:18.330Z,100.00
2022-07-26T00:59:21.398Z,100.00
2022-07-26T01:02:24.052Z,100.00
2022-07-26T01:05:27.449Z,100.00
2022-07-26T01:08:31.843Z,100.00
2022-07-26T01:11:34.445Z,100.00
2022-07-26T01:14:37.042Z,100.00
2022-07-26T01:17:40.087Z,100.00
2022-07-26T01:20:44.591Z,100.00
2022-07-26T01:23:48.794Z,100.00
2022-07-26T01:26:51.414Z,100.00
2022-07-26T01:29:54.029Z,100.00
2022-07-26T01:32:56.681Z,100.00
2022-07-26T01:36:00.086Z,100.00
2022-07-26T01:39:04.440Z,100.00
2022-07-26T01:42:07.311Z,100.00
2022-07-26T01:45:10.878Z,100.00
2022-07-26T01:48:13.515Z,100.00
2022-07-26T01:51:16.102Z,100.00
2022-07-26T01:54:22.262Z,100.00
2022-07-26T01:57:27.154Z,100.00
2022-07-26T02:00:29.941Z,100.00
2022-07-26T02:03:32.518Z,100.00
2022-07-26T02:06:35.152Z,100.00
2022-07-26T02:09:39.785Z,100.00
2022-07-26T02:12:43.078Z,100.00
2022-07-26T02:15:45.731Z,100.00
2022-07-26T02:18:48.399Z,100.00
2022-07-26T02:21:50.976Z,100.00
2022-07-26T02:24:55.226Z,100.00
2022-07-26T02:27:57.843Z,100.00
2022-07-26T02:31:00.461Z,100.00
2022-07-26T02:34:03.739Z,100.00
2022-07-26T02:37:06.397Z,100.00
2022-07-26T02:40:17.027Z,100.00
2022-07-26T02:43:21.539Z,100.00
2022-07-26T02:46:24.170Z,100.00
2022-07-26T02:49:26.832Z,100.00
2022-07-26T02:52:29.468Z,100.00
2022-07-26T02:55:33.466Z,100.00
2022-07-26T02:58:37.387Z,100.00
2022-07-26T03:01:40.087Z,100.00
2022-07-26T03:04:42.831Z,100.00
2022-07-26T03:07:46.453Z,100.00
2022-07-26T03:10:50.374Z,100.00
2022-07-26T03:13:52.955Z,100.00
2022-07-26T03:16:55.533Z,100.00
2022-07-26T03:19:58.176Z,100.00
2022-07-26T03:23:00.751Z,100.00
2022-07-26T03:26:04.728Z,100.00
2022-07-26T03:29:07.481Z,100.00
2022-07-26T03:32:11.231Z,100.00
2022-07-26T03:35:13.831Z,100.00
2022-07-26T03:38:16.446Z,100.00
2022-07-26T03:41:20.397Z,100.00
2022-07-26T03:44:22.999Z,100.00
2022-07-26T03:47:25.575Z,100.00
2022-07-26T03:50:28.200Z,100.00
2022-07-26T03:53:30.774Z,100.00
2022-07-26T03:56:34.763Z,100.00
2022-07-26T03:59:37.593Z,100.00
2022-07-26T04:02:40.178Z,100.00
2022-07-26T04:05:48.955Z,100.00
2022-07-26T04:08:51.958Z,100.00
2022-07-26T04:11:56.011Z,100.00
2022-07-26T04:14:58.532Z,100.00
2022-07-26T04:18:01.114Z,100.00
2022-07-26T04:21:03.951Z,100.00
2022-07-26T04:24:07.506Z,100.00
2022-07-26T04:27:11.613Z,100.00
2022-07-26T04:30:15.636Z,100.00
2022-07-26T04:33:18.429Z,100.00
2022-07-26T04:36:21.047Z,100.00
2022-07-26T04:39:24.583Z,100.00
2022-07-26T04:42:28.631Z,100.00
2022-07-26T04:45:31.343Z,100.00
2022-07-26T04:48:33.980Z,100.00
2022-07-26T04:51:36.610Z,100.00
2022-07-26T04:54:39.203Z,100.00
2022-07-26T04:57:43.687Z,100.00
2022-07-26T05:01:09.124Z,100.00
2022-07-26T05:04:09.450Z,100.00
2022-07-26T05:07:12.271Z,100.00
2022-07-26T05:10:15.660Z,100.00
2022-07-26T05:13:28.725Z,100.00
2022-07-26T05:16:33.422Z,100.00
2022-07-26T05:19:36.079Z,100.00
2022-07-26T05:22:38.873Z,100.00
2022-07-26T05:25:41.511Z,100.00
2022-07-26T05:28:45.516Z,100.00
2022-07-26T05:31:48.107Z,100.00
2022-07-26T05:34:50.994Z,100.00
2022-07-26T05:37:53.594Z,100.00
2022-07-26T05:40:56.211Z,100.00
2022-07-26T05:44:00.177Z,100.00
2022-07-26T05:47:02.846Z,100.00
2022-07-26T05:50:07.080Z,100.00
2022-07-26T05:53:09.645Z,100.00
2022-07-26T05:56:12.243Z,100.00
2022-07-26T05:59:16.206Z,100.00
2022-07-26T06:02:19.103Z,100.00
2022-07-26T06:05:21.841Z,100.00
2022-07-26T06:08:25.693Z,100.00
2022-07-26T06:11:28.587Z,100.00
2022-07-26T06:14:32.508Z,100.00
2022-07-26T06:17:35.142Z,100.00
2022-07-26T06:20:40.073Z,100.00
2022-07-26T06:23:42.683Z,100.00
2022-07-26T06:26:46.554Z,100.00
2022-07-26T06:29:52.528Z,100.00
2022-07-26T06:32:55.155Z,100.00
2022-07-26T06:35:57.766Z,100.00
2022-07-26T06:39:00.378Z,100.00
2022-07-26T06:42:02.969Z,100.00
2022-07-26T06:45:08.012Z,100.00
2022-07-26T06:48:10.603Z,100.00
2022-07-26T06:51:13.340Z,100.00
2022-07-26T06:54:15.942Z,100.00
2022-07-26T06:57:18.537Z,100.00
2022-07-26T07:00:22.523Z,100.00
2022-07-26T07:03:25.091Z,100.00
2022-07-26T07:06:27.681Z,100.00
2022-07-26T07:09:30.404Z,100.00
2022-07-26T07:12:33.087Z,100.00
2022-07-26T07:15:37.010Z,100.00
2022-07-26T07:18:39.595Z,100.00
2022-07-26T07:21:42.217Z,100.00
2022-07-26T07:24:44.852Z,100.00
2022-07-26T07:27:49.450Z,100.00
2022-07-26T07:30:53.418Z,100.00
2022-07-26T07:33:56.035Z,100.00
2022-07-26T07:36:58.674Z,100.00
2022-07-26T07:40:05.071Z,100.00
2022-07-26T07:43:07.658Z,100.00
2022-07-26T07:46:12.547Z,100.00
2022-07-26T07:49:15.743Z,100.00
2022-07-26T07:52:18.483Z,100.00
2022-07-26T07:55:40.398Z,100.00
2022-07-26T07:58:43.800Z,100.00
2022-07-26T08:01:47.739Z,100.00
2022-07-26T08:04:50.391Z,100.00
2022-07-26T08:07:52.945Z,100.00
2022-07-26T08:10:55.722Z,100.00
2022-07-26T08:13:59.421Z,100.00
2022-07-26T08:17:03.545Z,100.00
2022-07-26T08:20:08.021Z,100.00
2022-07-26T08:23:13.434Z,100.00
2022-07-26T08:26:16.079Z,100.00
2022-07-26T08:29:18.847Z,100.00
2022-07-26T08:32:22.866Z,100.00
2022-07-26T08:35:25.520Z,100.00
2022-07-26T08:38:28.212Z,100.00
2022-07-26T08:41:31.718Z,100.00
2022-07-26T08:44:35.110Z,100.00
2022-07-26T08:48:00.731Z,100.00
2022-07-26T08:51:11.117Z,100.00
2022-07-26T08:54:16.158Z,100.00
2022-07-26T08:57:19.750Z,100.00
2022-07-26T09:00:24.964Z,98.81
2022-07-26T09:03:29.169Z,98.62
2022-07-26T09:06:31.760Z,95.32
2022-07-26T09:09:36.329Z,97.27
2022-07-26T09:12:39.951Z,96.32
2022-07-26T09:15:42.539Z,93.57
2022-07-26T09:18:47.510Z,93.43
2022-07-26T09:21:51.314Z,86.08
2022-07-26T09:24:53.954Z,87.73
2022-07-26T09:27:56.715Z,86.95
2022-07-26T09:31:03.122Z,83.62
2022-07-26T09:34:08.788Z,85.14
2022-07-26T09:37:12.616Z,89.43
2022-07-26T09:40:17.466Z,91.03
2022-07-26T09:43:23.906Z,90.78
2022-07-26T09:46:29.618Z,94.41
2022-07-26T09:49:40.884Z,91.59
2022-07-26T09:52:59.082Z,91.92
2022-07-26T09:56:01.697Z,91.95
2022-07-26T09:59:05.763Z,83.66
2022-07-26T10:02:08.405Z,81.31
2022-07-26T10:05:12.344Z,83.03
2022-07-26T10:08:15.504Z,82.62
2022-07-26T10:11:20.136Z,81.62
2022-07-26T10:14:40.435Z,82.34
2022-07-26T10:17:43.670Z,83.59
2022-07-26T10:20:52.352Z,81.73
2022-07-26T10:23:57.907Z,74.36
2022-07-26T10:27:00.526Z,78.08
2022-07-26T10:30:22.846Z,76.06
2022-07-26T10:33:27.263Z,74.88
2022-07-26T10:36:36.448Z,74.35
2022-07-26T10:39:39.832Z,70.01
2022-07-26T10:42:46.328Z,68.41
2022-07-26T10:45:50.187Z,69.42
2022-07-26T10:48:59.811Z,66.20
2022-07-26T10:52:13.515Z,65.33
2022-07-26T10:55:20.559Z,69.05
2022-07-26T10:58:24.504Z,66.61
2022-07-26T11:01:34.252Z,66.58
2022-07-26T11:04:37.846Z,64.02
2022-07-26T11:08:05.030Z,58.76
2022-07-26T11:11:07.584Z,57.33
2022-07-26T11:14:12.713Z,54.91
2022-07-26T11:17:24.222Z,58.35
2022-07-26T11:20:29.775Z,55.12
2022-07-26T11:23:35.895Z,55.52
2022-07-26T11:26:41.747Z,57.18
2022-07-26T11:29:49.055Z,58.56
2022-07-26T11:32:53.987Z,58.78
2022-07-26T11:35:56.598Z,56.39
2022-07-26T11:39:01.155Z,56.55
2022-07-26T11:42:06.321Z,57.35
2022-07-26T11:45:11.201Z,60.34
2022-07-26T11:48:13.965Z,60.57
2022-07-26T11:51:18.263Z,62.15
2022-07-26T11:54:22.570Z,58.92
2022-07-26T11:57:30.687Z,58.80
2022-07-26T12:00:33.968Z,56.54
2022-07-26T12:03:36.591Z,53.90
2022-07-26T12:06:39.997Z,52.37
2022-07-26T12:09:49.326Z,51.28
2022-07-26T12:12:51.976Z,50.69
2022-07-26T12:15:54.657Z,52.76
2022-07-26T12:18:57.298Z,53.10
2022-07-26T12:22:08.620Z,55.36
2022-07-26T12:25:26.299Z,52.49
2022-07-26T12:28:41.460Z,50.66
2022-07-26T12:31:44.108Z,48.42
2022-07-26T12:35:00.592Z,47.49
2022-07-26T12:38:04.544Z,46.62
2022-07-26T12:41:08.538Z,45.48
2022-07-26T12:44:16.753Z,46.34
2022-07-26T12:47:20.075Z,46.10
2022-07-26T12:50:24.817Z,45.40
2022-07-26T12:53:27.513Z,45.10
2022-07-26T12:56:31.541Z,43.32
2022-07-26T12:59:34.215Z,41.79
2022-07-26T13:02:38.316Z,42.47
2022-07-26T13:05:40.925Z,43.54
2022-07-26T13:08:43.488Z,42.29
2022-07-26T13:11:47.466Z,41.56
2022-07-26T13:14:50.697Z,39.52
2022-07-26T13:17:53.303Z,40.18
2022-07-26T13:20:57.863Z,38.67
2022-07-26T13:24:00.481Z,39.46
2022-07-26T13:27:05.981Z,41.61
2022-07-26T13:30:09.507Z,43.89
2022-07-26T13:33:12.437Z,44.01
2022-07-26T13:36:15.049Z,42.97
2022-07-26T13:39:17.815Z,43.93
2022-07-26T13:42:22.091Z,42.66
2022-07-26T13:45:24.754Z,40.62
2022-07-26T13:48:31.937Z,42.58
2022-07-26T13:51:53.986Z,41.97
2022-07-26T13:54:56.558Z,41.69
2022-07-26T13:58:00.533Z,41.77
2022-07-26T14:01:03.919Z,44.00
2022-07-26T14:04:08.219Z,44.07
2022-07-26T14:07:10.933Z,45.53
2022-07-26T14:10:13.511Z,44.79
2022-07-26T14:13:17.490Z,46.48
2022-07-26T14:16:20.759Z,45.96
2022-07-26T14:19:23.350Z,47.93
2022-07-26T14:22:26.408Z,43.93
2022-07-26T14:25:29.322Z,45.99
2022-07-26T14:28:35.948Z,46.95
2022-07-26T14:31:38.611Z,45.93
2022-07-26T14:34:41.713Z,45.57
2022-07-26T14:37:45.632Z,45.40
2022-07-26T14:40:48.783Z,46.99
2022-07-26T14:43:55.494Z,47.43
2022-07-26T14:46:58.294Z,49.18
2022-07-26T14:50:06.225Z,47.36
2022-07-26T14:53:11.566Z,47.47
2022-07-26T14:56:14.210Z,46.84
2022-07-26T14:59:18.127Z,45.14
2022-07-26T15:02:20.919Z,46.60
2022-07-26T15:05:25.234Z,45.66
2022-07-26T15:08:27.874Z,44.96
2022-07-26T15:11:30.514Z,44.35
2022-07-26T15:14:34.504Z,45.24
2022-07-26T15:17:37.609Z,46.43
2022-07-26T15:20:41.574Z,47.43
2022-07-26T15:23:44.495Z,46.46
2022-07-26T15:26:47.142Z,46.31
2022-07-26T15:29:51.134Z,46.66
2022-07-26T15:32:54.449Z,48.55
2022-07-26T15:35:57.236Z,45.20
2022-07-26T15:39:14.654Z,45.52
2022-07-26T15:42:22.053Z,46.70
2022-07-26T15:45:27.881Z,46.27
2022-07-26T15:48:32.768Z,45.84
2022-07-26T15:51:35.480Z,46.34
2022-07-26T15:54:38.122Z,46.84
2022-07-26T15:57:41.225Z,47.29
2022-07-26T16:00:45.220Z,48.47
2022-07-26T16:03:48.743Z,51.21
2022-07-26T16:06:51.407Z,49.53
2022-07-26T16:09:54.249Z,52.16
2022-07-26T16:12:56.875Z,51.72
2022-07-26T16:16:01.043Z,52.16
2022-07-26T16:19:03.804Z,52.35
2022-07-26T16:22:06.515Z,51.87
2022-07-26T16:25:12.538Z,53.02
2022-07-26T16:28:15.212Z,52.50
2022-07-26T16:31:19.222Z,53.24
2022-07-26T16:34:21.817Z,52.48
2022-07-26T16:37:24.691Z,53.35
2022-07-26T16:40:27.341Z,53.38
2022-07-26T16:43:31.278Z,53.17
2022-07-26T16:46:35.362Z,51.61
2022-07-26T16:49:38.034Z,51.20
2022-07-26T16:52:40.770Z,51.47
2022-07-26T16:55:45.283Z,50.37
2022-07-26T16:58:48.026Z,49.30
2022-07-26T17:01:52.071Z,51.90
2022-07-26T17:04:57.122Z,53.59
2022-07-26T17:07:59.771Z,54.65
2022-07-26T17:11:02.539Z,56.02
2022-07-26T17:14:05.201Z,56.57
2022-07-26T17:17:09.213Z,57.60
2022-07-26T17:20:12.501Z,57.72
2022-07-26T17:23:18.265Z,56.90
2022-07-26T17:26:20.930Z,56.60
2022-07-26T17:29:23.509Z,54.79
2022-07-26T17:32:27.544Z,54.41
2022-07-26T17:35:30.243Z,53.82
2022-07-26T17:38:32.871Z,53.62
2022-07-26T17:41:36.941Z,54.41
2022-07-26T17:44:43.138Z,52.61
2022-07-26T17:47:47.403Z,51.95
2022-07-26T17:50:50.019Z,53.09
2022-07-26T17:53:53.391Z,52.04
2022-07-26T17:56:57.091Z,51.99
2022-07-26T18:00:04.441Z,52.11
2022-07-26T18:03:10.188Z,50.19
2022-07-26T18:06:12.975Z,53.00
2022-07-26T18:09:15.626Z,51.78
2022-07-26T18:12:18.270Z,55.89
2022-07-26T18:15:21.098Z,55.54
2022-07-26T18:18:25.092Z,53.66
2022-07-26T18:21:28.198Z,54.49
2022-07-26T18:24:30.927Z,54.83
2022-07-26T18:27:33.935Z,55.76
2022-07-26T18:30:36.675Z,54.30
2022-07-26T18:33:40.674Z,55.51
2022-07-26T18:36:43.309Z,56.48
2022-07-26T18:39:46.176Z,54.67
2022-07-26T18:42:49.098Z,53.88
2022-07-26T18:45:51.849Z,55.91
2022-07-26T18:48:56.054Z,56.16
2022-07-26T18:52:05.939Z,56.84
2022-07-26T18:55:13.080Z,56.23
2022-07-26T18:58:17.104Z,59.03
2022-07-26T19:01:22.346Z,57.24
2022-07-26T19:04:26.480Z,59.65
2022-07-26T19:07:29.604Z,60.75
2022-07-26T19:10:32.258Z,61.43
2022-07-26T19:13:34.937Z,62.05
2022-07-26T19:16:37.575Z,62.49
2022-07-26T19:19:42.865Z,64.58
2022-07-26T19:22:47.216Z,66.13
2022-07-26T19:25:49.799Z,64.32
2022-07-26T19:28:52.414Z,65.86
2022-07-26T19:31:55.049Z,65.75
2022-07-26T19:34:59.066Z,66.63
2022-07-26T19:38:01.771Z,67.59
2022-07-26T19:41:04.430Z,70.45
2022-07-26T19:44:07.006Z,68.52
2022-07-26T19:47:09.667Z,70.50
2022-07-26T19:50:14.181Z,71.46
2022-07-26T19:53:17.605Z,70.35
2022-07-26T19:56:20.190Z,71.47
2022-07-26T19:59:23.976Z,74.37
2022-07-26T20:02:27.277Z,74.10
2022-07-26T20:05:31.910Z,72.87
2022-07-26T20:08:36.083Z,73.98
2022-07-26T20:11:38.811Z,74.53
2022-07-26T20:14:41.515Z,74.97
2022-07-26T20:17:44.116Z,76.01
2022-07-26T20:20:48.058Z,75.83
2022-07-26T20:23:50.756Z,77.58
2022-07-26T20:26:53.576Z,76.47
2022-07-26T20:30:00.746Z,75.77
2022-07-26T20:33:03.944Z,76.76
2022-07-26T20:36:08.161Z,75.74
2022-07-26T20:39:11.172Z,76.74
2022-07-26T20:42:15.508Z,73.63
2022-07-26T20:45:25.114Z,75.02
2022-07-26T20:48:27.782Z,72.94
2022-07-26T20:51:31.771Z,72.72
2022-07-26T20:54:34.452Z,72.83
2022-07-26T20:57:37.594Z,70.83
2022-07-26T21:00:40.354Z,72.59
2022-07-26T21:03:42.996Z,70.92
2022-07-26T21:06:46.965Z,73.65
2022-07-26T21:09:49.550Z,76.48
2022-07-26T21:12:52.958Z,72.35
2022-07-26T21:15:55.587Z,75.25
2022-07-26T21:18:58.217Z,73.27
2022-07-26T21:22:02.244Z,74.29
2022-07-26T21:25:05.590Z,75.01
2022-07-26T21:28:08.217Z,73.37
2022-07-26T21:31:10.836Z,75.73
2022-07-26T21:34:13.505Z,72.88
2022-07-26T21:37:18.003Z,76.15
2022-07-26T21:40:20.609Z,72.68
2022-07-26T21:43:23.255Z,76.51
2022-07-26T21:46:26.093Z,73.48
2022-07-26T21:49:28.793Z,75.38
2022-07-26T21:52:32.779Z,75.48
2022-07-26T21:55:35.355Z,76.81
2022-07-26T21:58:38.801Z,78.74
2022-07-26T22:01:41.479Z,77.43
2022-07-26T22:04:45.489Z,75.02
2022-07-26T22:07:49.473Z,79.45
2022-07-26T22:10:52.723Z,80.74
2022-07-26T22:13:55.902Z,81.72
2022-07-26T22:16:58.637Z,81.13
2022-07-26T22:20:01.309Z,78.05
2022-07-26T22:23:07.217Z,79.59
2022-07-26T22:26:09.918Z,80.98
2022-07-26T22:29:12.760Z,81.51
2022-07-26T22:32:15.647Z,82.95
2022-07-26T22:35:18.527Z,83.67
2022-07-26T22:38:22.631Z,84.92
2022-07-26T22:41:25.261Z,83.38
2022-07-26T22:44:27.885Z,83.64
2022-07-26T22:47:30.530Z,82.71
2022-07-26T22:50:33.861Z,82.60
2022-07-26T22:53:37.847Z,81.08
2022-07-26T22:56:41.988Z,81.03
2022-07-26T22:59:44.625Z,81.59
2022-07-26T23:02:47.825Z,81.52
2022-07-26T23:05:52.295Z,82.39
2022-07-26T23:08:56.461Z,82.55
2022-07-26T23:12:00.286Z,81.51
2022-07-26T23:15:03.058Z,82.85
2022-07-26T23:18:05.673Z,82.00
2022-07-26T23:21:08.386Z,83.01
2022-07-26T23:24:12.455Z,84.47
2022-07-26T23:27:19.839Z,84.50
2022-07-26T23:30:23.079Z,84.91
2022-07-26T23:33:52.292Z,86.47
2022-07-26T23:36:48.322Z,85.72
2022-07-26T23:39:52.273Z,86.97
2022-07-26T23:42:56.134Z,84.51
2022-07-26T23:45:58.728Z,87.47
2022-07-26T23:49:01.496Z,85.94
2022-07-26T23:52:04.453Z,87.04
2022-07-26T23:55:10.346Z,88.35
2022-07-26T23:58:12.968Z,88.62
